CMA CGM Columba — 2DBC9 — position and weather

sailwx.info

Track history (hours):
 
Tides and Currents Weather Stations Pressure Air Temp Water Temp Dewpoint Dewpoint Depression Visibility Wind Speed Wind Dir Waves Ship Positions

CMA CGM Columba

Last reported at 2014-Nov-01 02:33 UTC. Time now 2014-Nov-01 02:45 UTC.
Position N 51°20' E 003°12'.

Length 363 m; draft 13 m.

Type: Ship (hazmat cat A). MMSI: 235077448.

Date/timePositionNaut miles runAvg speedWind from/ knotsBaromVisibWave heightAir tempDewpointWater temp
2014-Nov-01 02:33N 51°20' E 003°12'0 0.0
2014-Nov-01 01:34N 51°20' E 003°12'0 0.0
2014-Nov-01 00:33N 51°20' E 003°12'0 0.0
2014-Oct-31 23:33N 51°20' E 003°12'0 0.0
2014-Oct-31 22:31N 51°20' E 003°12'0 0.0
2014-Oct-31 21:33N 51°20' E 003°12'0 0.0
2014-Oct-31 20:33N 51°20' E 003°12'0 0.0
2014-Oct-31 19:33N 51°20' E 003°12'0 0.0
2014-Oct-31 18:28N 51°20' E 003°12'0 0.0
2014-Oct-31 17:33N 51°20' E 003°12'0 0.0
2014-Oct-31 16:34N 51°20' E 003°12'0 0.0
2014-Oct-31 15:33N 51°20' E 003°12'0 0.0
2014-Oct-31 14:33N 51°20' E 003°12'0 0.0
2014-Oct-31 13:25N 51°20' E 003°12'0 0.0
2014-Oct-31 12:33N 51°20' E 003°12'0 0.0
2014-Oct-31 11:33N 51°20' E 003°12'0 0.0
2014-Oct-31 10:33N 51°20' E 003°12'0 0.0
2014-Oct-31 09:33N 51°20' E 003°12'0 0.0
2014-Oct-31 08:27N 51°20' E 003°12'1 1.3
2014-Oct-31 07:34N 51°21' E 003°12'1211.7
2014-Oct-31 06:34N 51°25' E 002°54'9 8.6
2014-Oct-31 05:33N 51°25' E 002°41'0 0.2
2014-Oct-31 04:31N 51°26' E 002°41'0 0.1
2014-Oct-31 03:07N 51°26' E 002°40'0 0.4
2014-Oct-31 02:32N 51°25' E 002°40'0 0.1
2014-Oct-31 01:32N 51°25' E 002°40'0 0.0
2014-Oct-31 00:32N 51°25' E 002°40'0 0.1
2014-Oct-30 23:31N 51°25' E 002°40'0 0.2
2014-Oct-30 22:29N 51°26' E 002°40'0 0.1
2014-Oct-30 21:32N 51°26' E 002°40'0 0.0
2014-Oct-30 20:31N 51°26' E 002°40'0 0.0
2014-Oct-30 19:32N 51°26' E 002°40'0 0.0
2014-Oct-30 18:32N 51°26' E 002°40'0 0.1
2014-Oct-30 17:33N 51°26' E 002°40'7 7.0
2014-Oct-30 16:33N 51°32' E 002°46'1514.8
2014-Oct-30 15:33N 51°44' E 002°59'1616.0
2014-Oct-30 14:33N 51°55' E 003°18'1414.4
2014-Oct-30 13:33N 52°03' E 003°37'1312.6
2014-Oct-30 12:34N 52°01' E 003°57'6 6.2
2014-Oct-30 11:33N 51°57' E 004°04'0 0.3
2014-Oct-30 10:31N 51°57' E 004°04'0 0.0
2014-Oct-30 09:31N 51°57' E 004°04'0 0.0
2014-Oct-30 08:31N 51°57' E 004°04'0 0.0
2014-Oct-30 07:31N 51°57' E 004°04'0 0.0
2014-Oct-30 06:31N 51°57' E 004°04'0 0.0
2014-Oct-30 05:31N 51°57' E 004°04'0 0.0
2014-Oct-30 04:31N 51°57' E 004°04'0 0.0
2014-Oct-30 03:31N 51°57' E 004°04'0 0.0
2014-Oct-30 02:31N 51°57' E 004°04'0 0.0
2014-Oct-30 01:31N 51°57' E 004°04'0 0.0
2014-Oct-30 00:31N 51°57' E 004°04'0 0.0
2014-Oct-29 23:31N 51°57' E 004°04'0 0.0
2014-Oct-29 22:31N 51°57' E 004°04'0 0.0
2014-Oct-29 21:31N 51°57' E 004°04'0 0.0
2014-Oct-29 20:31N 51°57' E 004°04'0 0.0
2014-Oct-29 19:31N 51°57' E 004°04'0 0.0
2014-Oct-29 18:31N 51°57' E 004°04'0 0.0
2014-Oct-29 17:31N 51°57' E 004°04'0 0.1
2014-Oct-29 16:33N 51°57' E 004°04'4 4.4
2014-Oct-29 15:33N 52°00' E 003°59'8 8.0
2014-Oct-29 14:33N 52°02' E 003°47'1010.2
2014-Oct-29 13:34N 52°12' E 003°46'1616.1
2014-Oct-29 12:33N 52°28' E 003°50'1716.7
2014-Oct-29 11:33N 52°44' E 003°56'1616.2
2014-Oct-29 10:33N 52°60' E 004°05'1817.7
2014-Oct-29 09:34N 53°12' E 004°26'1918.6
2014-Oct-29 08:33N 53°29' E 004°39'1817.8
2014-Oct-29 07:34N 53°36' E 005°07'1918.8
2014-Oct-29 06:34N 53°42' E 005°37'1919.3
2014-Oct-29 05:33N 53°48' E 006°08'1918.7
2014-Oct-29 04:32N 53°52' E 006°40'3517.6
2014-Oct-29 02:33N 53°60' E 007°37'1515.3
2014-Oct-29 01:33N 53°51' E 007°59'1414.4
2014-Oct-29 00:33N 53°43' E 008°18'1111.3
2014-Oct-28 23:33N 53°35' E 008°32'0 0.2
2014-Oct-28 22:31N 53°35' E 008°32'0 0.0
2014-Oct-28 21:31N 53°35' E 008°32'0 0.0
2014-Oct-28 20:31N 53°35' E 008°32'0 0.0
2014-Oct-28 19:31N 53°35' E 008°32'0 0.0
2014-Oct-28 18:31N 53°35' E 008°32'0 0.0
2014-Oct-28 17:31N 53°35' E 008°32'0 0.0
2014-Oct-28 16:31N 53°35' E 008°32'0 0.0
2014-Oct-28 15:31N 53°35' E 008°32'0 0.0
2014-Oct-28 14:31N 53°35' E 008°32'0 0.0
2014-Oct-28 13:28N 53°35' E 008°32'0 0.0
2014-Oct-28 12:31N 53°35' E 008°32'0 0.0
2014-Oct-28 11:31N 53°35' E 008°32'0 0.0
2014-Oct-28 10:32N 53°35' E 008°32'0 0.0
2014-Oct-28 09:32N 53°35' E 008°32'0 0.0
2014-Oct-28 08:32N 53°35' E 008°32'0 0.0
2014-Oct-28 07:32N 53°35' E 008°32'0 0.0
2014-Oct-28 06:32N 53°35' E 008°32'0 0.0
2014-Oct-28 05:32N 53°35' E 008°32'0 0.0
2014-Oct-28 04:32N 53°35' E 008°32'0 0.0
2014-Oct-28 03:32N 53°35' E 008°32'0 0.0
2014-Oct-28 02:32N 53°35' E 008°32'0 0.0
2014-Oct-28 01:32N 53°35' E 008°32'0 0.0
2014-Oct-28 00:32N 53°35' E 008°32'0 0.0
2014-Oct-27 23:32N 53°35' E 008°32'0 0.0
2014-Oct-27 22:32N 53°35' E 008°32'0 0.0
2014-Oct-27 21:32N 53°35' E 008°32'0 0.0
2014-Oct-27 20:32N 53°35' E 008°32'5 4.7
2014-Oct-27 19:34N 53°38' E 008°27'1414.2
2014-Oct-27 18:33N 53°47' E 008°09'1514.7
2014-Oct-27 17:33N 53°55' E 007°48'1414.5
2014-Oct-27 16:34N 54°01' E 008°10'1717.5
2014-Oct-27 15:34N 53°56' E 008°39'1212.3
2014-Oct-27 14:33N 53°51' E 008°58'1211.8
2014-Oct-27 13:34N 53°52' E 009°18'1212.2
2014-Oct-27 12:34N 53°42' E 009°30'10 9.8
2014-Oct-27 11:34N 53°34' E 009°41'8 8.0
2014-Oct-27 10:34N 53°32' E 009°54'1 0.7
2014-Oct-27 09:33N 53°32' E 009°55'0 0.0
2014-Oct-27 08:33N 53°32' E 009°55'0 0.0
2014-Oct-27 07:33N 53°32' E 009°55'0 0.0
2014-Oct-27 06:33N 53°32' E 009°55'0 0.0
2014-Oct-27 05:33N 53°32' E 009°55'0 0.0
2014-Oct-27 04:33N 53°32' E 009°55'0 0.0
2014-Oct-27 03:33N 53°32' E 009°55'0 0.0
2014-Oct-27 02:33N 53°32' E 009°55'0 0.0
2014-Oct-27 01:33N 53°32' E 009°55'0 0.0
2014-Oct-27 00:33N 53°32' E 009°55'0 0.0
2014-Oct-26 23:33N 53°32' E 009°55'0 0.0
2014-Oct-26 22:33N 53°32' E 009°55'0 0.0
2014-Oct-26 21:33N 53°32' E 009°55'0 0.0
2014-Oct-26 20:33N 53°32' E 009°55'0 0.0
2014-Oct-26 19:33N 53°32' E 009°55'0 0.0
2014-Oct-26 18:33N 53°32' E 009°55'0 0.0
2014-Oct-26 17:33N 53°32' E 009°55'0 0.0
2014-Oct-26 16:33N 53°32' E 009°55'0 0.0
2014-Oct-26 15:33N 53°32' E 009°55'0 0.0
2014-Oct-26 14:33N 53°32' E 009°55'0 0.0
2014-Oct-26 13:33N 53°32' E 009°55'0 0.0
2014-Oct-26 12:33N 53°32' E 009°55'0 0.0
2014-Oct-26 11:33N 53°32' E 009°55'0 0.0
2014-Oct-26 10:33N 53°32' E 009°55'0 0.0
2014-Oct-26 09:33N 53°32' E 009°55'0 0.0
2014-Oct-26 08:30N 53°32' E 009°55'0 0.0
2014-Oct-26 07:33N 53°32' E 009°55'0 0.0
2014-Oct-26 06:33N 53°32' E 009°55'0 0.0
2014-Oct-26 05:33N 53°32' E 009°55'0 0.0
2014-Oct-26 04:33N 53°32' E 009°55'0 0.0
2014-Oct-26 03:33N 53°32' E 009°55'0 0.0
2014-Oct-26 02:33N 53°32' E 009°55'0 0.0
2014-Oct-26 01:33N 53°32' E 009°55'0 0.0
2014-Oct-26 00:33N 53°32' E 009°55'0 0.0
2014-Oct-25 23:33N 53°32' E 009°55'0 0.0
2014-Oct-25 22:33N 53°32' E 009°55'0 0.0
2014-Oct-25 21:33N 53°32' E 009°55'0 0.0
2014-Oct-25 20:33N 53°32' E 009°55'0 0.0
2014-Oct-25 19:33N 53°32' E 009°55'0 0.0
2014-Oct-25 18:33N 53°32' E 009°55'0 0.0
2014-Oct-25 17:33N 53°32' E 009°55'2 2.1
2014-Oct-25 16:33N 53°33' E 009°51'9 8.7
2014-Oct-25 15:34N 53°35' E 009°37'1110.9
2014-Oct-25 14:32N 53°44' E 009°27'1313.3
2014-Oct-25 13:33N 53°53' E 009°10'1312.6
2014-Oct-25 12:33N 53°50' E 008°49'1211.7
2014-Oct-25 11:33N 53°58' E 008°34'1515.1
2014-Oct-25 10:33N 53°59' E 008°09'7 6.8
2014-Oct-25 09:33N 53°58' E 007°57'3 3.1
2014-Oct-25 08:33N 53°57' E 007°52'1010.1
2014-Oct-25 07:33N 53°55' E 007°35'3617.1
2014-Oct-25 05:25N 53°47' E 006°35'1719.6
2014-Oct-25 04:33N 53°43' E 006°07'1919.4
2014-Oct-25 03:33N 53°37' E 005°36'1919.2
2014-Oct-25 02:33N 53°31' E 005°06'1918.9
2014-Oct-25 01:33N 53°21' E 004°39'2519.6
2014-Oct-25 00:18N 52°59' E 004°20'1919.6
2014-Oct-24 23:21N 52°43' E 004°03'1519.4
2014-Oct-24 22:33N 52°31' E 003°48'6418.9
2014-Oct-24 19:12N 51°46' E 002°35'1219.4
2014-Oct-24 18:33N 51°36' E 002°22'2020.0
2014-Oct-24 17:33N 51°21' E 002°01'2020.3
2014-Oct-24 16:33N 51°06' E 001°39'2020.2
2014-Oct-24 15:34N 50°49' E 001°23'2019.6
2014-Oct-24 14:33N 50°33' E 001°04'7719.4
2014-Oct-24 10:33N 49°33' W 000°12'1414.0
2014-Oct-24 09:33N 49°28' E 000°08'2 1.5
2014-Oct-24 08:32N 49°27' E 000°10'0 0.0
2014-Oct-24 07:32N 49°27' E 000°10'0 0.0
2014-Oct-24 06:32N 49°27' E 000°10'0 0.0
2014-Oct-24 05:32N 49°27' E 000°10'0 0.0
2014-Oct-24 04:32N 49°27' E 000°10'0 0.0
2014-Oct-24 03:32N 49°27' E 000°10'0 0.0
2014-Oct-24 02:32N 49°27' E 000°10'0 0.0
2014-Oct-24 01:32N 49°27' E 000°10'0 0.0
2014-Oct-24 00:32N 49°27' E 000°10'0 0.0
2014-Oct-23 23:32N 49°27' E 000°10'0 0.0
2014-Oct-23 22:32N 49°27' E 000°10'0 0.0
2014-Oct-23 21:32N 49°27' E 000°10'0 0.0
2014-Oct-23 20:32N 49°27' E 000°10'0 0.0
2014-Oct-23 19:32N 49°27' E 000°10'0 0.0
2014-Oct-23 18:32N 49°27' E 000°10'0 0.0
2014-Oct-23 17:32N 49°27' E 000°10'0 0.0
2014-Oct-23 16:32N 49°27' E 000°10'0 0.0
2014-Oct-23 15:29N 49°27' E 000°10'0 0.0
2014-Oct-23 14:32N 49°27' E 000°10'0 0.0
2014-Oct-23 13:32N 49°27' E 000°10'0 0.0
2014-Oct-23 12:33N 49°27' E 000°10'2 2.3
2014-Oct-23 11:34N 49°28' E 000°07'1212.2
2014-Oct-23 10:33N 49°33' W 000°10'6 5.9
2014-Oct-23 09:34N 49°37' W 000°17'4 3.7
2014-Oct-23 08:33N 49°36' W 000°11'1312.9
2014-Oct-23 07:33N 49°34' W 000°31'6119.6
2014-Oct-23 04:28N 49°54' W 001°59'1820.1
2014-Oct-23 03:33N 49°53' W 002°28'2019.6
2014-Oct-23 02:32N 49°45' W 002°56'18118.1
2014-Oct-22 16:33N 47°46' W 006°22'1919.4
2014-Oct-22 15:33N 47°29' W 006°35'  
Track history (hours):
 
Tides and Currents Weather Stations Pressure Air Temp Water Temp Dewpoint Dewpoint Depression Visibility Wind Speed Wind Dir Waves Ship Positions

CMA CGM Columba

Last reported at 2014-Nov-01 02:33 UTC. Time now 2014-Nov-01 02:45 UTC.
Position N 51°20' E 003°12'.

Length 363 m; draft 13 m.

Type: Ship (hazmat cat A). MMSI: 235077448.

Date/timePositionNaut miles runAvg speedWind from/ knotsBaromVisibWave heightAir tempDewpointWater temp
2014-Nov-01 02:33N 51°20' E 003°12'0 0.0
2014-Nov-01 01:34N 51°20' E 003°12'0 0.0
2014-Nov-01 00:33N 51°20' E 003°12'0 0.0
2014-Oct-31 23:33N 51°20' E 003°12'0 0.0
2014-Oct-31 22:31N 51°20' E 003°12'0 0.0
2014-Oct-31 21:33N 51°20' E 003°12'0 0.0
2014-Oct-31 20:33N 51°20' E 003°12'0 0.0
2014-Oct-31 19:33N 51°20' E 003°12'0 0.0
2014-Oct-31 18:28N 51°20' E 003°12'0 0.0
2014-Oct-31 17:33N 51°20' E 003°12'0 0.0
2014-Oct-31 16:34N 51°20' E 003°12'0 0.0
2014-Oct-31 15:33N 51°20' E 003°12'0 0.0
2014-Oct-31 14:33N 51°20' E 003°12'0 0.0
2014-Oct-31 13:25N 51°20' E 003°12'0 0.0
2014-Oct-31 12:33N 51°20' E 003°12'0 0.0
2014-Oct-31 11:33N 51°20' E 003°12'0 0.0
2014-Oct-31 10:33N 51°20' E 003°12'0 0.0
2014-Oct-31 09:33N 51°20' E 003°12'0 0.0
2014-Oct-31 08:27N 51°20' E 003°12'1 1.3
2014-Oct-31 07:34N 51°21' E 003°12'1211.7
2014-Oct-31 06:34N 51°25' E 002°54'9 8.6
2014-Oct-31 05:33N 51°25' E 002°41'0 0.2
2014-Oct-31 04:31N 51°26' E 002°41'0 0.1
2014-Oct-31 03:07N 51°26' E 002°40'0 0.4
2014-Oct-31 02:32N 51°25' E 002°40'0 0.1
2014-Oct-31 01:32N 51°25' E 002°40'0 0.0
2014-Oct-31 00:32N 51°25' E 002°40'0 0.1
2014-Oct-30 23:31N 51°25' E 002°40'0 0.2
2014-Oct-30 22:29N 51°26' E 002°40'0 0.1
2014-Oct-30 21:32N 51°26' E 002°40'0 0.0
2014-Oct-30 20:31N 51°26' E 002°40'0 0.0
2014-Oct-30 19:32N 51°26' E 002°40'0 0.0
2014-Oct-30 18:32N 51°26' E 002°40'0 0.1
2014-Oct-30 17:33N 51°26' E 002°40'7 7.0
2014-Oct-30 16:33N 51°32' E 002°46'1514.8
2014-Oct-30 15:33N 51°44' E 002°59'1616.0
2014-Oct-30 14:33N 51°55' E 003°18'1414.4
2014-Oct-30 13:33N 52°03' E 003°37'1312.6
2014-Oct-30 12:34N 52°01' E 003°57'6 6.2
2014-Oct-30 11:33N 51°57' E 004°04'0 0.3
2014-Oct-30 10:31N 51°57' E 004°04'0 0.0
2014-Oct-30 09:31N 51°57' E 004°04'0 0.0
2014-Oct-30 08:31N 51°57' E 004°04'0 0.0
2014-Oct-30 07:31N 51°57' E 004°04'0 0.0
2014-Oct-30 06:31N 51°57' E 004°04'0 0.0
2014-Oct-30 05:31N 51°57' E 004°04'0 0.0
2014-Oct-30 04:31N 51°57' E 004°04'0 0.0
2014-Oct-30 03:31N 51°57' E 004°04'0 0.0
2014-Oct-30 02:31N 51°57' E 004°04'0 0.0
2014-Oct-30 01:31N 51°57' E 004°04'0 0.0
2014-Oct-30 00:31N 51°57' E 004°04'0 0.0
2014-Oct-29 23:31N 51°57' E 004°04'0 0.0
2014-Oct-29 22:31N 51°57' E 004°04'0 0.0
2014-Oct-29 21:31N 51°57' E 004°04'0 0.0
2014-Oct-29 20:31N 51°57' E 004°04'0 0.0
2014-Oct-29 19:31N 51°57' E 004°04'0 0.0
2014-Oct-29 18:31N 51°57' E 004°04'0 0.0
2014-Oct-29 17:31N 51°57' E 004°04'0 0.1
2014-Oct-29 16:33N 51°57' E 004°04'4 4.4
2014-Oct-29 15:33N 52°00' E 003°59'8 8.0
2014-Oct-29 14:33N 52°02' E 003°47'1010.2
2014-Oct-29 13:34N 52°12' E 003°46'1616.1
2014-Oct-29 12:33N 52°28' E 003°50'1716.7
2014-Oct-29 11:33N 52°44' E 003°56'1616.2
2014-Oct-29 10:33N 52°60' E 004°05'1817.7
2014-Oct-29 09:34N 53°12' E 004°26'1918.6
2014-Oct-29 08:33N 53°29' E 004°39'1817.8
2014-Oct-29 07:34N 53°36' E 005°07'1918.8
2014-Oct-29 06:34N 53°42' E 005°37'1919.3
2014-Oct-29 05:33N 53°48' E 006°08'1918.7
2014-Oct-29 04:32N 53°52' E 006°40'3517.6
2014-Oct-29 02:33N 53°60' E 007°37'1515.3
2014-Oct-29 01:33N 53°51' E 007°59'1414.4
2014-Oct-29 00:33N 53°43' E 008°18'1111.3
2014-Oct-28 23:33N 53°35' E 008°32'0 0.2
2014-Oct-28 22:31N 53°35' E 008°32'0 0.0
2014-Oct-28 21:31N 53°35' E 008°32'0 0.0
2014-Oct-28 20:31N 53°35' E 008°32'0 0.0
2014-Oct-28 19:31N 53°35' E 008°32'0 0.0
2014-Oct-28 18:31N 53°35' E 008°32'0 0.0
2014-Oct-28 17:31N 53°35' E 008°32'0 0.0
2014-Oct-28 16:31N 53°35' E 008°32'0 0.0
2014-Oct-28 15:31N 53°35' E 008°32'0 0.0
2014-Oct-28 14:31N 53°35' E 008°32'0 0.0
2014-Oct-28 13:28N 53°35' E 008°32'0 0.0
2014-Oct-28 12:31N 53°35' E 008°32'0 0.0
2014-Oct-28 11:31N 53°35' E 008°32'0 0.0
2014-Oct-28 10:32N 53°35' E 008°32'0 0.0
2014-Oct-28 09:32N 53°35' E 008°32'0 0.0
2014-Oct-28 08:32N 53°35' E 008°32'0 0.0
2014-Oct-28 07:32N 53°35' E 008°32'0 0.0
2014-Oct-28 06:32N 53°35' E 008°32'0 0.0
2014-Oct-28 05:32N 53°35' E 008°32'0 0.0
2014-Oct-28 04:32N 53°35' E 008°32'0 0.0
2014-Oct-28 03:32N 53°35' E 008°32'0 0.0
2014-Oct-28 02:32N 53°35' E 008°32'0 0.0
2014-Oct-28 01:32N 53°35' E 008°32'0 0.0
2014-Oct-28 00:32N 53°35' E 008°32'0 0.0
2014-Oct-27 23:32N 53°35' E 008°32'0 0.0
2014-Oct-27 22:32N 53°35' E 008°32'0 0.0
2014-Oct-27 21:32N 53°35' E 008°32'0 0.0
2014-Oct-27 20:32N 53°35' E 008°32'5 4.7
2014-Oct-27 19:34N 53°38' E 008°27'1414.2
2014-Oct-27 18:33N 53°47' E 008°09'1514.7
2014-Oct-27 17:33N 53°55' E 007°48'1414.5
2014-Oct-27 16:34N 54°01' E 008°10'1717.5
2014-Oct-27 15:34N 53°56' E 008°39'1212.3
2014-Oct-27 14:33N 53°51' E 008°58'1211.8
2014-Oct-27 13:34N 53°52' E 009°18'1212.2
2014-Oct-27 12:34N 53°42' E 009°30'10 9.8
2014-Oct-27 11:34N 53°34' E 009°41'8 8.0
2014-Oct-27 10:34N 53°32' E 009°54'1 0.7
2014-Oct-27 09:33N 53°32' E 009°55'0 0.0
2014-Oct-27 08:33N 53°32' E 009°55'0 0.0
2014-Oct-27 07:33N 53°32' E 009°55'0 0.0
2014-Oct-27 06:33N 53°32' E 009°55'0 0.0
2014-Oct-27 05:33N 53°32' E 009°55'0 0.0
2014-Oct-27 04:33N 53°32' E 009°55'0 0.0
2014-Oct-27 03:33N 53°32' E 009°55'0 0.0
2014-Oct-27 02:33N 53°32' E 009°55'0 0.0
2014-Oct-27 01:33N 53°32' E 009°55'0 0.0
2014-Oct-27 00:33N 53°32' E 009°55'0 0.0
2014-Oct-26 23:33N 53°32' E 009°55'0 0.0
2014-Oct-26 22:33N 53°32' E 009°55'0 0.0
2014-Oct-26 21:33N 53°32' E 009°55'0 0.0
2014-Oct-26 20:33N 53°32' E 009°55'0 0.0
2014-Oct-26 19:33N 53°32' E 009°55'0 0.0
2014-Oct-26 18:33N 53°32' E 009°55'0 0.0
2014-Oct-26 17:33N 53°32' E 009°55'0 0.0
2014-Oct-26 16:33N 53°32' E 009°55'0 0.0
2014-Oct-26 15:33N 53°32' E 009°55'0 0.0
2014-Oct-26 14:33N 53°32' E 009°55'0 0.0
2014-Oct-26 13:33N 53°32' E 009°55'0 0.0
2014-Oct-26 12:33N 53°32' E 009°55'0 0.0
2014-Oct-26 11:33N 53°32' E 009°55'0 0.0
2014-Oct-26 10:33N 53°32' E 009°55'0 0.0
2014-Oct-26 09:33N 53°32' E 009°55'0 0.0
2014-Oct-26 08:30N 53°32' E 009°55'0 0.0
2014-Oct-26 07:33N 53°32' E 009°55'0 0.0
2014-Oct-26 06:33N 53°32' E 009°55'0 0.0
2014-Oct-26 05:33N 53°32' E 009°55'0 0.0
2014-Oct-26 04:33N 53°32' E 009°55'0 0.0
2014-Oct-26 03:33N 53°32' E 009°55'0 0.0
2014-Oct-26 02:33N 53°32' E 009°55'0 0.0
2014-Oct-26 01:33N 53°32' E 009°55'0 0.0
2014-Oct-26 00:33N 53°32' E 009°55'0 0.0
2014-Oct-25 23:33N 53°32' E 009°55'0 0.0
2014-Oct-25 22:33N 53°32' E 009°55'0 0.0
2014-Oct-25 21:33N 53°32' E 009°55'0 0.0
2014-Oct-25 20:33N 53°32' E 009°55'0 0.0
2014-Oct-25 19:33N 53°32' E 009°55'0 0.0
2014-Oct-25 18:33N 53°32' E 009°55'0 0.0
2014-Oct-25 17:33N 53°32' E 009°55'2 2.1
2014-Oct-25 16:33N 53°33' E 009°51'9 8.7
2014-Oct-25 15:34N 53°35' E 009°37'1110.9
2014-Oct-25 14:32N 53°44' E 009°27'1313.3
2014-Oct-25 13:33N 53°53' E 009°10'1312.6
2014-Oct-25 12:33N 53°50' E 008°49'1211.7
2014-Oct-25 11:33N 53°58' E 008°34'1515.1
2014-Oct-25 10:33N 53°59' E 008°09'7 6.8
2014-Oct-25 09:33N 53°58' E 007°57'3 3.1
2014-Oct-25 08:33N 53°57' E 007°52'1010.1
2014-Oct-25 07:33N 53°55' E 007°35'3617.1
2014-Oct-25 05:25N 53°47' E 006°35'1719.6
2014-Oct-25 04:33N 53°43' E 006°07'1919.4
2014-Oct-25 03:33N 53°37' E 005°36'1919.2
2014-Oct-25 02:33N 53°31' E 005°06'1918.9
2014-Oct-25 01:33N 53°21' E 004°39'2519.6
2014-Oct-25 00:18N 52°59' E 004°20'1919.6
2014-Oct-24 23:21N 52°43' E 004°03'1519.4
2014-Oct-24 22:33N 52°31' E 003°48'6418.9
2014-Oct-24 19:12N 51°46' E 002°35'1219.4
2014-Oct-24 18:33N 51°36' E 002°22'2020.0
2014-Oct-24 17:33N 51°21' E 002°01'2020.3
2014-Oct-24 16:33N 51°06' E 001°39'2020.2
2014-Oct-24 15:34N 50°49' E 001°23'2019.6
2014-Oct-24 14:33N 50°33' E 001°04'7719.4
2014-Oct-24 10:33N 49°33' W 000°12'1414.0
2014-Oct-24 09:33N 49°28' E 000°08'2 1.5
2014-Oct-24 08:32N 49°27' E 000°10'0 0.0
2014-Oct-24 07:32N 49°27' E 000°10'0 0.0
2014-Oct-24 06:32N 49°27' E 000°10'0 0.0
2014-Oct-24 05:32N 49°27' E 000°10'0 0.0
2014-Oct-24 04:32N 49°27' E 000°10'0 0.0
2014-Oct-24 03:32N 49°27' E 000°10'0 0.0
2014-Oct-24 02:32N 49°27' E 000°10'0 0.0
2014-Oct-24 01:32N 49°27' E 000°10'0 0.0
2014-Oct-24 00:32N 49°27' E 000°10'0 0.0
2014-Oct-23 23:32N 49°27' E 000°10'0 0.0
2014-Oct-23 22:32N 49°27' E 000°10'0 0.0
2014-Oct-23 21:32N 49°27' E 000°10'0 0.0
2014-Oct-23 20:32N 49°27' E 000°10'0 0.0
2014-Oct-23 19:32N 49°27' E 000°10'0 0.0
2014-Oct-23 18:32N 49°27' E 000°10'0 0.0
2014-Oct-23 17:32N 49°27' E 000°10'0 0.0
2014-Oct-23 16:32N 49°27' E 000°10'0 0.0
2014-Oct-23 15:29N 49°27' E 000°10'0 0.0
2014-Oct-23 14:32N 49°27' E 000°10'0 0.0
2014-Oct-23 13:32N 49°27' E 000°10'0 0.0
2014-Oct-23 12:33N 49°27' E 000°10'2 2.3
2014-Oct-23 11:34N 49°28' E 000°07'1212.2
2014-Oct-23 10:33N 49°33' W 000°10'6 5.9
2014-Oct-23 09:34N 49°37' W 000°17'4 3.7
2014-Oct-23 08:33N 49°36' W 000°11'1312.9
2014-Oct-23 07:33N 49°34' W 000°31'6119.6
2014-Oct-23 04:28N 49°54' W 001°59'1820.1
2014-Oct-23 03:33N 49°53' W 002°28'2019.6
2014-Oct-23 02:32N 49°45' W 002°56'18118.1
2014-Oct-22 16:33N 47°46' W 006°22'1919.4
2014-Oct-22 15:33N 47°29' W 006°35'  

Dump ship's entire track history